Time;durP1;ratioP1;P1;durP2;ratioP2;P2;SDS_P1;SDS_P2;PMS_P1;PMS_P2;Temp;Humidity;BMP_temperature;BMP_pressure;BME280_temperature;BME280_humidity;BME280_pressure;Samples;Min_cycle;Max_cycle;Signal;HPM_P1;HPM_P2
2023/08/06 00:02:54;;;;;;;13.43;8.50;;;;;;;31.62;59.01;99801.25;31678546;28;20078;-77
2023/08/06 00:17:56;;;;;;;11.32;7.50;;;;;;;31.54;59.25;99790.84;31672339;28;20048;-77
2023/08/06 00:32:59;;;;;;;12.50;9.52;;;;;;;31.31;60.28;99767.06;31672355;28;20072;-77
2023/08/06 00:48:03;;;;;;;19.23;7.72;;;;;;;31.23;61.06;99738.31;31672632;28;20139;-77
2023/08/06 01:03:05;;;;;;;9.23;7.45;;;;;;;31.04;61.55;99742.34;31666677;28;20134;-76
2023/08/06 01:18:07;;;;;;;16.02;8.93;;;;;;;30.84;62.66;99724.53;31669500;28;20778;-77
2023/08/06 01:33:19;;;;;;;15.93;8.05;;;;;;;30.88;63.63;99726.19;31679938;28;20130;-77
2023/08/06 01:48:21;;;;;;;14.60;8.73;;;;;;;30.51;64.52;99722.97;31667488;28;20423;-80
2023/08/06 02:03:23;;;;;;;16.70;8.10;;;;;;;30.42;65.34;99698.38;31677228;28;20272;-78
2023/08/06 02:18:25;;;;;;;11.63;8.00;;;;;;;30.28;66.29;99688.72;31678701;28;20090;-78
2023/08/06 02:33:27;;;;;;;13.52;8.07;;;;;;;30.04;67.74;99676.84;31654416;28;20046;-78
2023/08/06 02:48:29;;;;;;;13.65;7.80;;;;;;;30.18;66.82;99685.78;31667410;28;20059;-79
2023/08/06 03:03:31;;;;;;;11.60;8.13;;;;;;;30.31;66.39;99684.78;31674235;28;20040;-78
2023/08/06 03:18:33;;;;;;;10.60;7.85;;;;;;;30.52;65.86;99686.00;31682042;28;20048;-77
2023/08/06 03:33:35;;;;;;;17.90;8.43;;;;;;;30.70;65.89;99683.34;31693717;28;20055;-77
2023/08/06 03:48:37;;;;;;;11.23;7.40;;;;;;;31.07;64.06;99676.00;31669929;28;20086;-78
2023/08/06 04:03:39;;;;;;;12.40;6.93;;;;;;;31.41;63.04;99664.94;31693569;28;20134;-79
2023/08/06 04:18:41;;;;;;;11.85;7.70;;;;;;;31.58;62.51;99677.47;31676135;28;20663;-79
2023/08/06 04:33:43;;;;;;;12.70;8.23;;;;;;;32.17;61.07;99672.56;31657856;28;20048;-78
2023/08/06 04:48:46;;;;;;;13.98;8.18;;;;;;;32.90;59.65;99674.84;31665354;28;20043;-79
2023/08/06 05:03:48;;;;;;;13.15;7.82;;;;;;;33.33;58.60;99652.81;31659612;28;20135;-80
2023/08/06 05:18:50;;;;;;;15.15;7.30;;;;;;;33.80;56.62;99640.16;31658489;28;20052;-79
2023/08/06 05:33:52;;;;;;;9.13;6.90;;;;;;;34.14;56.21;99622.97;31659443;28;20048;-78
2023/08/06 05:48:54;;;;;;;11.13;6.32;;;;;;;35.09;55.04;99631.00;31670574;28;20062;-81
2023/08/06 06:03:56;;;;;;;10.35;6.80;;;;;;;35.77;53.64;99614.41;31664458;28;20079;-82
2023/08/06 06:18:58;;;;;;;9.40;6.47;;;;;;;36.43;52.20;99614.38;31677821;28;20096;-81
2023/08/06 06:34:00;;;;;;;7.55;5.72;;;;;;;37.13;48.37;99603.09;31660097;28;20051;-78
2023/08/06 06:49:02;;;;;;;10.90;5.80;;;;;;;37.66;46.73;99567.31;31648240;28;20082;-80
2023/08/06 07:04:04;;;;;;;7.15;5.60;;;;;;;37.84;45.75;99548.50;31659617;28;20510;-79
2023/08/06 07:19:06;;;;;;;9.13;5.40;;;;;;;39.09;43.43;99547.38;31656104;28;20051;-78
2023/08/06 07:34:08;;;;;;;7.78;4.78;;;;;;;40.02;41.74;99528.47;31659658;28;20456;-78
2023/08/06 07:49:11;;;;;;;14.57;4.88;;;;;;;40.48;39.41;99515.63;31638916;28;20473;-78
2023/08/06 08:04:13;;;;;;;15.65;3.70;;;;;;;40.89;35.50;99501.81;31652889;28;20047;-81
2023/08/06 08:19:15;;;;;;;15.05;3.67;;;;;;;40.88;34.42;99488.22;31660684;28;20094;-76
2023/08/06 08:34:17;;;;;;;9.98;3.30;;;;;;;41.37;33.24;99468.19;31661510;28;20048;-79
2023/08/06 08:49:23;;;;;;;9.70;3.17;;;;;;;41.03;33.23;99458.97;31654089;28;20476;-80
2023/08/06 09:04:27;;;;;;;11.52;4.10;;;;;;;41.69;33.09;99445.22;31668536;28;20547;-76
2023/08/06 09:19:29;;;;;;;11.90;3.67;;;;;;;42.21;32.85;99424.41;31660174;28;20071;-76
2023/08/06 09:34:31;;;;;;;7.07;4.10;;;;;;;42.81;31.90;99479.28;31670346;28;20078;-79
2023/08/06 09:49:33;;;;;;;16.25;8.77;;;;;;;43.20;30.19;99407.06;31617734;28;20139;-78
2023/08/06 10:04:35;;;;;;;10.20;3.20;;;;;;;43.34;29.64;99374.63;31664554;28;20126;-76
2023/08/06 10:19:42;;;;;;;3.92;2.80;;;;;;;43.94;29.22;99364.22;31619574;28;20055;-75
2023/08/06 10:34:58;;;;;;;10.18;2.10;;;;;;;43.89;26.25;99345.53;31626702;28;20112;-78
2023/08/06 10:50:00;;;;;;;;;;;;;;;44.17;24.77;99334.88;31632824;28;20055;-75
2023/08/06 11:05:10;;;;;;;3.33;1.70;;;;;;;44.82;23.85;99336.50;31641290;28;19926;-78
2023/08/06 11:20:12;;;;;;;10.43;2.05;;;;;;;44.69;23.57;99297.53;31627347;28;20066;-76
2023/08/06 11:35:18;;;;;;;4.25;1.60;;;;;;;43.81;23.49;99293.84;31641036;28;20125;-80
2023/08/06 11:50:27;;;;;;;2.80;1.92;;;;;;;42.21;24.69;99284.69;31667707;28;20039;-82
2023/08/06 12:05:31;;;;;;;4.60;2.38;;;;;;;42.04;25.29;99279.84;31663368;27;20399;-78
2023/08/06 12:20:33;;;;;;;4.18;2.88;;;;;;;41.69;26.25;99266.47;31675163;28;20139;-77
2023/08/06 12:35:35;;;;;;;4.22;3.17;;;;;;;41.52;25.75;99245.22;31642511;28;20051;-76
2023/08/06 12:50:37;;;;;;;8.35;3.05;;;;;;;41.31;27.05;99234.50;31632075;28;20168;-79
2023/08/06 13:05:39;;;;;;;10.20;3.60;;;;;;;41.40;27.33;99209.88;31617800;28;20056;-77
2023/08/06 13:20:41;;;;;;;9.88;4.78;;;;;;;41.14;27.52;99195.38;31659697;28;20052;-78
2023/08/06 13:35:43;;;;;;;11.27;4.50;;;;;;;41.04;27.78;99197.88;31634384;28;20048;-78
2023/08/06 13:50:45;;;;;;;14.05;4.82;;;;;;;41.16;27.69;99169.88;31624379;28;20133;-75
2023/08/06 14:05:48;;;;;;;9.68;4.93;;;;;;;40.89;28.60;99177.41;31651484;28;20047;-77
2023/08/06 14:20:50;;;;;;;6.72;4.22;;;;;;;40.75;28.51;99151.28;31627429;28;20414;-77
2023/08/06 14:35:52;;;;;;;6.53;4.15;;;;;;;40.63;28.50;99133.72;31650369;28;20112;-77
2023/08/06 14:50:56;;;;;;;8.65;4.35;;;;;;;40.59;29.22;99127.91;31617661;28;20116;-78
2023/08/06 15:05:58;;;;;;;6.47;2.78;;;;;;;40.38;29.30;99103.66;31643933;28;20058;-77
2023/08/06 15:21:00;;;;;;;6.82;4.05;;;;;;;40.22;30.20;99115.09;31670078;28;20082;-77
2023/08/06 15:36:02;;;;;;;8.20;4.25;;;;;;;40.11;30.09;99096.22;31658363;28;20055;-75
2023/08/06 15:51:05;;;;;;;8.57;5.00;;;;;;;39.98;30.22;99102.78;31666591;28;20497;-77
2023/08/06 16:06:07;;;;;;;9.65;5.47;;;;;;;39.65;31.03;99100.00;31660002;28;20079;-74
2023/08/06 16:21:09;;;;;;;9.23;4.82;;;;;;;39.40;31.77;99098.97;31673274;28;20055;-76
2023/08/06 16:36:11;;;;;;;9.57;4.57;;;;;;;39.01;32.12;99090.16;31633885;28;20056;-78
2023/08/06 16:51:16;;;;;;;13.30;5.22;;;;;;;38.54;33.06;99091.59;31636835;28;20147;-76
2023/08/06 17:06:17;;;;;;;8.50;5.47;;;;;;;38.16;34.38;99090.56;31638711;28;20079;-75
2023/08/06 17:21:20;;;;;;;12.82;6.95;;;;;;;37.74;35.39;99085.66;31646882;28;20506;-75
2023/08/06 17:36:21;;;;;;;13.13;6.45;;;;;;;37.35;36.21;99089.38;31649480;28;20167;-78
2023/08/06 17:51:24;;;;;;;16.25;7.03;;;;;;;36.98;37.01;99083.19;31649735;28;20071;-75
2023/08/06 18:06:26;;;;;;;10.20;5.35;;;;;;;36.76;38.29;99079.94;31627543;28;20495;-75
2023/08/06 18:21:28;;;;;;;11.88;5.00;;;;;;;36.40;38.83;99073.03;31641643;28;20134;-76
2023/08/06 18:36:30;;;;;;;10.25;5.88;;;;;;;36.11;39.06;99060.19;31638037;28;20135;-78
2023/08/06 18:51:32;;;;;;;16.92;7.95;;;;;;;35.78;39.84;99037.88;31614376;28;20111;-75
2023/08/06 19:06:34;;;;;;;17.27;9.20;;;;;;;35.70;40.18;99042.28;31645522;28;20051;-76
2023/08/06 19:21:36;;;;;;;14.73;8.60;;;;;;;35.28;41.56;99035.69;31630110;28;20063;-76
2023/08/06 19:36:38;;;;;;;22.65;9.18;;;;;;;35.14;42.01;99024.28;31642291;28;20427;-76
2023/08/06 19:51:40;;;;;;;19.20;10.10;;;;;;;34.88;42.20;99023.47;31627227;28;20058;-76
2023/08/06 20:06:42;;;;;;;20.95;11.68;;;;;;;34.56;43.53;99007.41;31655651;28;20051;-76
2023/08/06 20:21:45;;;;;;;17.90;9.65;;;;;;;34.31;44.24;99008.00;31675159;28;20083;-77
2023/08/06 20:36:47;;;;;;;12.95;8.65;;;;;;;34.05;45.51;98981.72;31664755;28;20048;-76
2023/08/06 20:51:49;;;;;;;15.82;9.38;;;;;;;33.81;47.01;98969.69;31635518;28;20103;-75
2023/08/06 21:06:51;;;;;;;16.88;9.18;;;;;;;33.63;47.87;98936.81;31643483;28;20430;-75
2023/08/06 21:21:54;;;;;;;13.88;8.75;;;;;;;33.39;48.63;98919.88;31656912;28;20754;-75
2023/08/06 21:36:56;;;;;;;19.40;8.98;;;;;;;33.27;49.51;98913.50;31634803;28;20082;-73
2023/08/06 21:51:59;;;;;;;14.02;8.40;;;;;;;33.17;49.41;98910.72;31631838;28;20054;-77
2023/08/06 22:07:01;;;;;;;12.45;8.98;;;;;;;33.07;49.47;98895.28;31651767;28;20078;-77
2023/08/06 22:22:03;;;;;;;14.23;8.32;;;;;;;32.92;49.57;98890.81;31651341;28;20078;-75
2023/08/06 22:37:05;;;;;;;14.65;7.93;;;;;;;32.74;49.66;98890.34;31652355;28;20080;-77
2023/08/06 22:52:07;;;;;;;15.52;8.57;;;;;;;32.70;49.95;98887.22;31657747;28;20108;-77
2023/08/06 23:07:09;;;;;;;13.00;8.68;;;;;;;32.47;50.05;98892.69;31664455;28;20071;-75
2023/08/06 23:22:11;;;;;;;15.35;8.00;;;;;;;32.20;50.58;98893.72;31624976;28;20071;-75
2023/08/06 23:37:13;;;;;;;8.95;7.25;;;;;;;31.93;50.95;98882.00;31659358;28;20411;-76
2023/08/06 23:52:15;;;;;;;15.43;6.95;;;;;;;31.53;52.75;98894.63;31664119;28;20059;-77
